createdAt,value
2017-09-28T00:01:44.467Z,23.63
2017-09-28T00:04:11.259Z,21.90
2017-09-28T00:06:38.204Z,22.10
2017-09-28T00:09:04.970Z,22.80
2017-09-28T00:11:31.751Z,21.77
2017-09-28T00:13:58.501Z,21.50
2017-09-28T00:16:25.274Z,21.40
2017-09-28T00:18:52.060Z,22.10
2017-09-28T00:21:18.821Z,22.00
2017-09-28T00:23:45.606Z,20.93
2017-09-28T00:26:12.414Z,21.33
2017-09-28T00:28:39.889Z,21.60
2017-09-28T00:31:06.690Z,21.77
2017-09-28T00:33:33.514Z,21.10
2017-09-28T00:36:00.696Z,22.63
2017-09-28T00:38:27.499Z,26.10
2017-09-28T00:40:54.291Z,21.80
2017-09-28T00:43:21.086Z,21.87
2017-09-28T00:45:47.853Z,20.60
2017-09-28T00:48:14.734Z,21.60
2017-09-28T00:50:41.492Z,22.10
2017-09-28T00:53:08.239Z,23.10
2017-09-28T00:55:35.085Z,21.20
2017-09-28T00:58:01.856Z,21.43
2017-09-28T01:00:28.598Z,22.20
2017-09-28T01:02:55.457Z,22.13
2017-09-28T01:05:22.237Z,22.60
2017-09-28T01:07:48.994Z,21.87
2017-09-28T01:10:15.827Z,20.70
2017-09-28T01:12:42.631Z,21.50
2017-09-28T01:15:09.379Z,20.00
2017-09-28T01:17:36.192Z,20.97
2017-09-28T01:20:02.972Z,20.27
2017-09-28T01:22:29.759Z,19.33
2017-09-28T01:24:56.566Z,20.90
2017-09-28T01:27:24.037Z,21.37
2017-09-28T01:29:50.834Z,20.27
2017-09-28T01:32:17.639Z,20.63
2017-09-28T01:34:44.415Z,20.43
2017-09-28T01:37:11.197Z,19.63
2017-09-28T01:39:38.015Z,18.33
2017-09-28T01:42:05.589Z,19.80
2017-09-28T01:44:32.853Z,19.60
2017-09-28T01:47:00.387Z,19.60
2017-09-28T01:49:27.167Z,21.23
2017-09-28T01:51:53.957Z,21.83
2017-09-28T01:54:20.774Z,19.23
2017-09-28T01:56:48.265Z,19.97
2017-09-28T01:59:15.045Z,19.90
2017-09-28T02:01:41.841Z,20.03
2017-09-28T02:04:08.633Z,18.33
2017-09-28T02:06:35.411Z,19.57
2017-09-28T02:09:02.219Z,21.13
2017-09-28T02:11:29.493Z,19.10
2017-09-28T02:13:56.270Z,18.00
2017-09-28T02:16:23.079Z,19.80
2017-09-28T02:18:49.866Z,19.10
2017-09-28T02:21:16.654Z,20.87
2017-09-28T02:23:43.485Z,20.80
2017-09-28T02:26:10.283Z,19.83
2017-09-28T02:28:37.058Z,20.03
2017-09-28T02:31:04.198Z,19.30
2017-09-28T02:33:30.977Z,20.17
2017-09-28T02:35:57.752Z,20.70
2017-09-28T02:38:24.579Z,19.97
2017-09-28T02:40:51.664Z,20.03
2017-09-28T02:43:18.417Z,21.87
2017-09-28T02:45:45.224Z,23.20
2017-09-28T02:48:12.014Z,20.67
2017-09-28T02:50:38.767Z,20.80
2017-09-28T02:53:05.548Z,23.60
2017-09-28T02:55:32.319Z,21.23
2017-09-28T02:57:59.081Z,21.97
2017-09-28T03:00:26.824Z,21.80
2017-09-28T03:02:53.572Z,20.20
2017-09-28T03:05:20.355Z,19.87
2017-09-28T03:07:47.158Z,19.73
2017-09-28T03:10:13.922Z,21.10
2017-09-28T03:12:40.680Z,20.47
2017-09-28T03:15:07.463Z,21.67
2017-09-28T03:17:34.246Z,20.50
2017-09-28T03:20:01.260Z,19.87
2017-09-28T03:22:28.066Z,20.80
2017-09-28T03:24:54.846Z,20.27
2017-09-28T03:27:21.608Z,21.40
2017-09-28T03:29:48.405Z,22.37
2017-09-28T03:32:15.151Z,21.23
2017-09-28T03:34:41.918Z,21.17
2017-09-28T03:37:08.700Z,21.97
2017-09-28T03:39:35.457Z,20.17
2017-09-28T03:42:02.221Z,21.30
2017-09-28T03:44:29.031Z,22.43
2017-09-28T03:46:55.779Z,19.73
2017-09-28T03:49:22.526Z,21.20
2017-09-28T03:51:49.323Z,21.37
2017-09-28T03:54:16.072Z,23.73
2017-09-28T03:56:42.828Z,21.47
2017-09-28T03:59:09.627Z,22.00
2017-09-28T04:01:36.411Z,22.50
2017-09-28T04:04:03.187Z,22.30
2017-09-28T04:06:29.984Z,22.30
2017-09-28T04:08:56.750Z,22.23
2017-09-28T04:11:23.523Z,21.20
2017-09-28T04:13:50.326Z,23.67
2017-09-28T04:16:17.076Z,24.03
2017-09-28T04:18:43.842Z,22.87
2017-09-28T04:21:10.634Z,21.67
2017-09-28T04:23:37.443Z,23.17
2017-09-28T04:26:04.320Z,25.47
2017-09-28T04:28:31.147Z,24.50
2017-09-28T04:30:57.913Z,21.80
2017-09-28T04:33:24.676Z,22.57
2017-09-28T04:35:51.487Z,22.97
2017-09-28T04:38:18.872Z,23.00
2017-09-28T04:40:45.630Z,24.17
2017-09-28T04:43:12.425Z,24.23
2017-09-28T04:45:39.189Z,23.40
2017-09-28T04:48:05.932Z,25.20
2017-09-28T04:50:32.722Z,24.10
2017-09-28T04:52:59.494Z,23.30
2017-09-28T04:55:26.245Z,22.73
2017-09-28T04:57:53.036Z,24.03
2017-09-28T05:00:19.802Z,24.20
2017-09-28T05:02:46.758Z,23.20
2017-09-28T05:05:13.539Z,25.27
2017-09-28T05:07:41.345Z,24.00
2017-09-28T05:10:08.118Z,23.00
2017-09-28T05:12:35.147Z,24.67
2017-09-28T05:15:02.588Z,24.70
2017-09-28T05:17:29.358Z,25.07
2017-09-28T05:19:56.162Z,22.40
2017-09-28T05:22:22.927Z,25.37
2017-09-28T05:24:49.695Z,23.57
2017-09-28T05:27:16.498Z,26.70
2017-09-28T05:29:43.258Z,25.07
2017-09-28T05:32:10.028Z,25.53
2017-09-28T05:34:36.833Z,26.43
2017-09-28T05:37:03.645Z,24.70
2017-09-28T05:39:30.397Z,25.63
2017-09-28T05:41:57.228Z,25.47
2017-09-28T05:44:24.551Z,25.90
2017-09-28T05:46:51.327Z,24.20
2017-09-28T05:49:18.170Z,23.30
2017-09-28T05:51:44.995Z,22.93
2017-09-28T05:54:12.541Z,24.37
2017-09-28T05:56:39.966Z,23.83
2017-09-28T05:59:06.745Z,23.03
2017-09-28T06:01:33.573Z,24.80
2017-09-28T06:04:00.407Z,24.70
2017-09-28T06:06:27.248Z,25.37
2017-09-28T06:08:53.992Z,25.70
2017-09-28T06:11:20.870Z,24.83
2017-09-28T06:13:47.627Z,24.70
2017-09-28T06:16:14.372Z,25.37
2017-09-28T06:18:51.119Z,23.93
2017-09-28T06:21:17.890Z,26.27
2017-09-28T06:23:44.636Z,24.27
2017-09-28T06:26:11.960Z,23.30
2017-09-28T06:28:38.709Z,24.47
2017-09-28T06:31:05.478Z,27.17
2017-09-28T06:33:32.274Z,28.30
2017-09-28T06:35:59.016Z,28.87
2017-09-28T06:38:25.771Z,29.40
2017-09-28T06:40:52.584Z,31.00
2017-09-28T06:43:19.331Z,31.53
2017-09-28T06:45:46.112Z,33.17
2017-09-28T06:48:12.945Z,34.07
2017-09-28T06:50:39.699Z,35.03
2017-09-28T06:53:06.476Z,35.43
2017-09-28T06:55:33.275Z,36.20
2017-09-28T06:58:00.025Z,35.50
2017-09-28T07:00:26.763Z,32.60
2017-09-28T07:02:53.568Z,33.30
2017-09-28T07:05:20.320Z,35.03
2017-09-28T07:07:47.069Z,35.90
2017-09-28T07:10:14.242Z,32.67
2017-09-28T07:12:40.983Z,32.10
2017-09-28T07:15:07.744Z,32.97
2017-09-28T07:17:34.528Z,31.03
2017-09-28T07:20:01.280Z,30.50
2017-09-28T07:22:28.043Z,28.63
2017-09-28T07:24:54.832Z,27.17
2017-09-28T07:27:21.579Z,29.40
2017-09-28T07:29:48.361Z,26.80
2017-09-28T07:32:15.172Z,28.70
2017-09-28T07:34:41.970Z,28.03
2017-09-28T07:37:09.458Z,25.67
2017-09-28T07:39:36.240Z,28.07
2017-09-28T07:42:03.007Z,24.57
2017-09-28T07:44:29.761Z,24.47
2017-09-28T07:46:56.586Z,24.87
2017-09-28T07:49:23.335Z,25.30
2017-09-28T07:51:50.094Z,26.07
2017-09-28T07:54:17.497Z,24.37
2017-09-28T07:56:44.262Z,23.97
2017-09-28T07:59:11.039Z,24.90
2017-09-28T08:01:37.820Z,24.60
2017-09-28T08:04:04.598Z,23.40
2017-09-28T08:06:31.359Z,23.53
2017-09-28T08:08:58.141Z,24.87
2017-09-28T08:11:25.373Z,23.87
2017-09-28T08:13:52.147Z,25.73
2017-09-28T08:16:18.956Z,24.80
2017-09-28T08:18:45.728Z,24.20
2017-09-28T08:21:12.518Z,24.23
2017-09-28T08:23:39.352Z,26.07
2017-09-28T08:26:06.130Z,27.53
2017-09-28T08:28:32.896Z,25.60
2017-09-28T08:30:59.702Z,27.23
2017-09-28T08:33:26.475Z,25.40
2017-09-28T08:35:54.201Z,23.97
2017-09-28T08:38:21.006Z,24.30
2017-09-28T08:40:47.776Z,22.53
2017-09-28T08:43:14.548Z,23.90
2017-09-28T08:45:41.351Z,22.70
2017-09-28T08:48:08.109Z,21.50
2017-09-28T08:50:34.877Z,21.90
2017-09-28T08:53:01.682Z,23.10
2017-09-28T08:55:29.246Z,24.67
2017-09-28T08:57:56.014Z,23.90
2017-09-28T09:00:22.795Z,24.03
2017-09-28T09:02:49.562Z,25.30
2017-09-28T09:05:16.338Z,25.23
2017-09-28T09:07:43.137Z,26.33
2017-09-28T09:10:09.892Z,26.73
2017-09-28T09:12:37.034Z,28.20
2017-09-28T09:15:03.860Z,27.80
2017-09-28T09:17:30.619Z,27.17
2017-09-28T09:19:57.387Z,27.00
2017-09-28T09:22:24.180Z,27.87
2017-09-28T09:24:50.929Z,29.77
2017-09-28T09:27:17.686Z,29.47
2017-09-28T09:29:44.471Z,26.53
2017-09-28T09:32:11.243Z,28.20
2017-09-28T09:34:38.026Z,26.97
2017-09-28T09:37:04.822Z,25.90
2017-09-28T09:39:31.598Z,25.73
2017-09-28T09:41:58.362Z,23.90
2017-09-28T09:44:25.166Z,24.40
2017-09-28T09:46:51.938Z,25.37
2017-09-28T09:49:18.744Z,22.07
2017-09-28T09:51:45.523Z,23.30
2017-09-28T09:54:12.290Z,22.10
2017-09-28T09:56:39.032Z,22.97
2017-09-28T09:59:05.825Z,20.20
2017-09-28T10:01:32.589Z,21.57
2017-09-28T10:03:59.358Z,21.17
2017-09-28T10:06:26.198Z,20.87
2017-09-28T10:08:55.190Z,20.70
2017-09-28T10:11:26.891Z,19.47
2017-09-28T10:14:06.230Z,19.93
2017-09-28T10:16:33.010Z,19.17
2017-09-28T10:18:59.829Z,19.93
2017-09-28T10:21:26.642Z,22.90
2017-09-28T10:23:53.432Z,19.97
2017-09-28T10:26:20.645Z,23.03
2017-09-28T10:28:47.927Z,20.67
2017-09-28T10:31:14.730Z,21.27
2017-09-28T10:33:42.520Z,20.17
2017-09-28T10:36:09.285Z,20.43
2017-09-28T10:38:36.068Z,21.83
2017-09-28T10:41:02.807Z,21.13
2017-09-28T10:43:30.321Z,21.00
2017-09-28T10:45:57.099Z,21.70
2017-09-28T10:48:23.846Z,20.23
2017-09-28T10:50:50.620Z,23.20
2017-09-28T10:53:17.428Z,22.97
2017-09-28T10:55:44.190Z,23.90
2017-09-28T10:58:10.983Z,22.30
2017-09-28T11:00:37.796Z,23.10
2017-09-28T11:03:05.218Z,22.60
2017-09-28T11:05:31.981Z,23.70
2017-09-28T11:07:58.767Z,22.37
2017-09-28T11:10:25.515Z,26.00
2017-09-28T11:12:52.278Z,22.50
2017-09-28T11:15:19.060Z,23.00
2017-09-28T11:17:45.813Z,22.87
2017-09-28T11:20:13.104Z,23.30
2017-09-28T11:22:40.538Z,21.77
2017-09-28T11:25:07.307Z,23.50
2017-09-28T11:27:34.048Z,22.43
2017-09-28T11:30:00.851Z,23.73
2017-09-28T11:32:27.619Z,22.17
2017-09-28T11:34:55.012Z,22.23
2017-09-28T11:37:21.796Z,21.60
2017-09-28T11:39:48.555Z,20.70
2017-09-28T11:44:48.517Z,19.07
2017-09-28T11:47:15.263Z,18.73
2017-09-28T11:49:42.259Z,17.37
2017-09-28T11:52:09.059Z,19.70
2017-09-28T11:54:35.826Z,20.50
2017-09-28T11:57:02.587Z,20.83
2017-09-28T11:59:30.157Z,20.30
2017-09-28T12:01:56.944Z,18.47
2017-09-28T12:04:23.702Z,18.83
2017-09-28T12:06:50.479Z,20.43
2017-09-28T12:09:17.246Z,19.73
2017-09-28T12:11:44.600Z,20.37
2017-09-28T12:14:11.711Z,20.27
2017-09-28T12:16:38.476Z,19.80
2017-09-28T12:19:05.262Z,20.63
2017-09-28T12:21:32.062Z,19.73
2017-09-28T12:23:58.851Z,19.30
2017-09-28T12:26:25.634Z,19.90
2017-09-28T12:28:52.470Z,19.87
2017-09-28T12:31:19.216Z,21.07
2017-09-28T12:33:45.976Z,21.47
2017-09-28T12:36:12.763Z,19.13
2017-09-28T12:38:39.528Z,23.10
2017-09-28T12:41:06.279Z,21.00
2017-09-28T12:43:33.074Z,22.40
2017-09-28T12:45:59.828Z,22.00
2017-09-28T12:48:26.695Z,21.57
2017-09-28T12:50:53.548Z,21.70
2017-09-28T12:53:20.296Z,21.33
2017-09-28T12:55:47.069Z,22.70
2017-09-28T12:58:14.246Z,23.07
2017-09-28T13:00:41.024Z,23.80
2017-09-28T13:03:07.796Z,23.03
2017-09-28T13:05:34.603Z,24.47
2017-09-28T13:08:01.370Z,25.20
2017-09-28T13:10:28.996Z,25.00
2017-09-28T13:12:55.838Z,24.90
2017-09-28T13:15:23.230Z,24.10
2017-09-28T13:17:50.002Z,26.30
2017-09-28T13:20:16.977Z,26.60
2017-09-28T13:22:43.768Z,25.30
2017-09-28T13:25:10.569Z,27.40
2017-09-28T13:27:37.375Z,25.47
2017-09-28T13:30:04.227Z,27.63
2017-09-28T13:32:31.006Z,26.07
2017-09-28T13:34:57.845Z,27.97
2017-09-28T13:37:24.698Z,26.30
2017-09-28T13:39:51.504Z,28.13
2017-09-28T13:42:18.288Z,26.13
2017-09-28T13:44:45.056Z,25.67
2017-09-28T13:47:11.834Z,24.47
2017-09-28T13:49:38.647Z,27.30
2017-09-28T13:52:05.413Z,27.50
2017-09-28T13:54:32.167Z,29.53
2017-09-28T13:56:58.999Z,29.93
2017-09-28T13:59:25.756Z,29.33
2017-09-28T14:01:52.545Z,29.67
2017-09-28T14:04:19.366Z,29.97
2017-09-28T14:06:46.120Z,29.37
2017-09-28T14:09:12.931Z,30.50
2017-09-28T14:11:39.707Z,30.10
2017-09-28T14:14:06.517Z,28.50
2017-09-28T14:16:33.272Z,29.57
2017-09-28T14:19:00.098Z,30.33
2017-09-28T14:21:26.933Z,29.40
2017-09-28T14:23:53.715Z,31.10
2017-09-28T14:26:20.515Z,30.57
2017-09-28T14:28:47.296Z,29.90
2017-09-28T14:31:14.079Z,28.00
2017-09-28T14:33:40.899Z,28.00
2017-09-28T14:36:07.671Z,29.63
2017-09-28T14:38:34.429Z,28.13
2017-09-28T14:41:01.230Z,29.10
2017-09-28T14:43:28.002Z,28.87
2017-09-28T14:45:54.772Z,31.13
2017-09-28T14:48:21.579Z,29.20
2017-09-28T14:50:48.951Z,29.37
2017-09-28T14:53:15.715Z,29.67
2017-09-28T14:55:42.499Z,30.27
2017-09-28T14:58:09.267Z,28.93
2017-09-28T15:00:36.059Z,28.70
2017-09-28T15:03:02.901Z,28.77
2017-09-28T15:05:29.827Z,32.20
2017-09-28T15:07:56.778Z,29.87
2017-09-28T15:10:23.645Z,28.70
2017-09-28T15:12:50.414Z,30.00
2017-09-28T15:15:17.262Z,31.07
2017-09-28T15:17:44.063Z,27.17
2017-09-28T15:20:10.844Z,29.23
2017-09-28T15:22:37.710Z,27.73
2017-09-28T15:25:04.495Z,26.53
2017-09-28T15:27:31.386Z,26.17
2017-09-28T15:29:58.801Z,28.60
2017-09-28T15:32:25.750Z,27.17
2017-09-28T15:34:52.692Z,27.00
2017-09-28T15:37:19.524Z,27.10
2017-09-28T15:39:46.397Z,26.03
2017-09-28T15:42:13.189Z,26.97
2017-09-28T15:44:40.004Z,25.10
2017-09-28T15:47:07.066Z,27.67
2017-09-28T15:49:33.862Z,28.63
2017-09-28T15:52:00.638Z,26.80
2017-09-28T15:54:27.427Z,27.37
2017-09-28T15:56:54.172Z,25.63
2017-09-28T15:59:20.947Z,24.90
2017-09-28T16:01:47.875Z,26.93
2017-09-28T16:04:14.540Z,27.40
2017-09-28T16:06:41.310Z,25.60
2017-09-28T16:09:08.088Z,25.47
2017-09-28T16:11:34.840Z,24.83
2017-09-28T16:14:01.593Z,25.33
2017-09-28T16:16:29.257Z,26.67
2017-09-28T16:18:56.013Z,26.30
2017-09-28T16:21:22.786Z,24.10
2017-09-28T16:23:49.620Z,24.60
2017-09-28T16:26:16.457Z,25.50
2017-09-28T16:28:43.231Z,26.20
2017-09-28T16:31:10.035Z,25.80
2017-09-28T16:33:37.272Z,24.90
2017-09-28T16:36:04.060Z,25.67
2017-09-28T16:38:30.884Z,26.10
2017-09-28T16:40:57.660Z,24.57
2017-09-28T16:43:24.416Z,26.50
2017-09-28T16:45:51.237Z,27.50
2017-09-28T16:48:18.424Z,26.97
2017-09-28T16:50:45.197Z,26.10
2017-09-28T16:53:11.980Z,26.37
2017-09-28T16:55:38.740Z,26.90
2017-09-28T16:58:05.493Z,27.30
2017-09-28T17:00:32.302Z,26.73
2017-09-28T17:02:59.274Z,26.00
2017-09-28T17:05:26.012Z,25.77
2017-09-28T17:07:52.797Z,25.70
2017-09-28T17:10:19.575Z,26.30
2017-09-28T17:12:46.388Z,28.30
2017-09-28T17:15:13.223Z,28.37
2017-09-28T17:17:40.024Z,26.07
2017-09-28T17:20:06.930Z,26.60
2017-09-28T17:22:33.826Z,26.37
2017-09-28T17:25:00.902Z,27.00
2017-09-28T17:27:27.671Z,26.57
2017-09-28T17:29:54.494Z,28.63
2017-09-28T17:32:21.894Z,28.20
2017-09-28T17:34:48.789Z,27.37
2017-09-28T17:37:16.107Z,27.30
2017-09-28T17:39:42.874Z,27.73
2017-09-28T17:42:09.655Z,27.80
2017-09-28T17:44:36.497Z,27.50
2017-09-28T17:47:03.256Z,28.50
2017-09-28T17:49:30.046Z,26.43
2017-09-28T17:51:56.879Z,28.20
2017-09-28T17:54:23.647Z,29.60
2017-09-28T17:56:50.411Z,29.87
2017-09-28T17:59:17.211Z,28.97
2017-09-28T18:01:43.965Z,28.80
2017-09-28T18:04:11.127Z,29.57
2017-09-28T18:06:37.948Z,28.97
2017-09-28T18:09:04.866Z,30.00
2017-09-28T18:11:31.647Z,27.77
2017-09-28T18:13:58.472Z,30.40
2017-09-28T18:16:25.260Z,31.27
2017-09-28T18:18:52.075Z,27.70
2017-09-28T18:21:18.894Z,30.53
2017-09-28T18:23:45.649Z,29.40
2017-09-28T18:26:12.463Z,29.10
2017-09-28T18:28:39.255Z,29.00
2017-09-28T18:31:06.001Z,30.60
2017-09-28T18:33:32.758Z,31.93
2017-09-28T18:35:59.567Z,29.40
2017-09-28T18:38:26.339Z,31.70
2017-09-28T18:40:53.083Z,31.57
2017-09-28T18:43:19.888Z,34.77
2017-09-28T18:45:46.648Z,33.80
2017-09-28T18:48:13.440Z,34.53
2017-09-28T18:50:40.282Z,34.27
2017-09-28T18:53:07.691Z,33.97
2017-09-28T18:55:34.529Z,34.40
2017-09-28T18:58:01.317Z,34.00
2017-09-28T19:00:28.092Z,32.63
2017-09-28T19:02:54.887Z,35.37
2017-09-28T19:05:21.726Z,33.13
2017-09-28T19:07:48.520Z,33.67
2017-09-28T19:10:15.289Z,33.13
2017-09-28T19:12:42.098Z,34.40
2017-09-28T19:15:08.865Z,33.50
2017-09-28T19:17:35.651Z,34.20
2017-09-28T19:20:02.455Z,35.37
2017-09-28T19:22:30.040Z,35.43
2017-09-28T19:24:57.399Z,33.93
2017-09-28T19:27:24.200Z,33.87
2017-09-28T19:29:51.006Z,33.10
2017-09-28T19:32:18.071Z,35.03
2017-09-28T19:34:44.868Z,33.50
2017-09-28T19:37:11.661Z,32.70
2017-09-28T19:39:38.414Z,35.17
2017-09-28T19:42:05.356Z,34.10
2017-09-28T19:44:32.121Z,32.37
2017-09-28T19:46:59.286Z,31.47
2017-09-28T19:49:26.421Z,34.33
2017-09-28T19:51:53.173Z,35.87
2017-09-28T19:54:20.635Z,34.70
2017-09-28T19:56:47.509Z,36.70
2017-09-28T19:59:14.275Z,32.63
2017-09-28T20:01:41.164Z,33.47
2017-09-28T20:04:08.594Z,33.53
2017-09-28T20:06:35.366Z,35.03
2017-09-28T20:09:02.881Z,33.70
2017-09-28T20:11:30.376Z,33.20
2017-09-28T20:13:57.174Z,36.97
2017-09-28T20:16:23.983Z,35.20
2017-09-28T20:18:50.824Z,34.90
2017-09-28T20:21:17.706Z,35.87
2017-09-28T20:23:44.466Z,36.27
2017-09-28T20:26:11.286Z,37.97
2017-09-28T20:28:38.114Z,35.53
2017-09-28T20:31:04.954Z,35.53
2017-09-28T20:33:31.771Z,35.50
2017-09-28T20:35:58.536Z,34.20
2017-09-28T20:38:25.292Z,37.23
2017-09-28T20:40:52.076Z,36.30
2017-09-28T20:43:18.843Z,35.80
2017-09-28T20:45:45.853Z,37.33
2017-09-28T20:48:12.686Z,36.13
2017-09-28T20:50:39.464Z,34.50
2017-09-28T20:53:06.235Z,33.30
2017-09-28T20:55:33.023Z,35.87
2017-09-28T20:57:59.862Z,36.70
2017-09-28T21:00:27.514Z,37.33
2017-09-28T21:02:54.329Z,34.40
2017-09-28T21:05:21.119Z,36.60
2017-09-28T21:07:48.110Z,37.93
2017-09-28T21:10:14.908Z,35.33
2017-09-28T21:12:41.654Z,35.87
2017-09-28T21:15:08.423Z,34.47
2017-09-28T21:17:35.393Z,37.57
2017-09-28T21:20:02.148Z,37.93
2017-09-28T21:22:28.980Z,35.30
2017-09-28T21:24:55.785Z,35.30
2017-09-28T21:27:22.559Z,36.90
2017-09-28T21:29:49.326Z,39.27
2017-09-28T21:32:16.140Z,37.57
2017-09-28T21:34:42.918Z,40.47
2017-09-28T21:37:09.679Z,38.40
2017-09-28T21:39:36.486Z,40.13
2017-09-28T21:42:03.272Z,39.83
2017-09-28T21:44:30.023Z,38.50
2017-09-28T21:46:56.861Z,38.00
2017-09-28T21:49:23.638Z,35.13
2017-09-28T21:51:50.413Z,35.40
2017-09-28T21:54:17.249Z,34.50
2017-09-28T21:56:44.047Z,33.70
2017-09-28T21:59:10.902Z,34.50
2017-09-28T22:01:37.710Z,34.67
2017-09-28T22:04:05.282Z,38.40
2017-09-28T22:06:32.058Z,38.30
2017-09-28T22:08:58.920Z,38.00
2017-09-28T22:11:25.687Z,38.30
2017-09-28T22:13:52.460Z,70.90
2017-09-28T22:16:19.349Z,37.73
2017-09-28T22:18:46.146Z,35.77
2017-09-28T22:21:12.931Z,34.17
2017-09-28T22:23:39.789Z,33.67
2017-09-28T22:26:06.658Z,33.70
2017-09-28T22:28:33.479Z,33.27
2017-09-28T22:31:00.541Z,32.80
2017-09-28T22:33:27.331Z,32.90
2017-09-28T22:35:54.086Z,33.57
2017-09-28T22:38:21.084Z,32.10
2017-09-28T22:40:47.852Z,33.70
2017-09-28T22:43:14.611Z,32.33
2017-09-28T22:45:41.488Z,30.87
2017-09-28T22:48:08.297Z,32.50
2017-09-28T22:50:35.048Z,32.03
2017-09-28T22:53:01.847Z,37.07
2017-09-28T22:55:28.633Z,35.70
2017-09-28T22:57:55.383Z,39.83
2017-09-28T23:00:22.199Z,37.30
2017-09-28T23:02:48.964Z,36.47
2017-09-28T23:05:15.707Z,37.60
2017-09-28T23:07:42.528Z,38.60
2017-09-28T23:10:09.303Z,39.43
2017-09-28T23:12:36.085Z,39.93
2017-09-28T23:15:03.225Z,35.47
2017-09-28T23:17:30.646Z,35.57
2017-09-28T23:19:57.426Z,35.70
2017-09-28T23:22:24.224Z,36.40
2017-09-28T23:24:50.977Z,37.07
2017-09-28T23:27:17.742Z,36.23
2017-09-28T23:29:44.532Z,37.67
2017-09-28T23:32:11.334Z,37.23
2017-09-28T23:34:38.111Z,35.77
2017-09-28T23:37:04.936Z,37.00
2017-09-28T23:39:31.890Z,37.17
2017-09-28T23:41:58.643Z,38.77
2017-09-28T23:44:25.450Z,38.00
2017-09-28T23:46:52.204Z,37.93
2017-09-28T23:49:19.001Z,40.93
2017-09-28T23:51:45.776Z,43.40
2017-09-28T23:54:12.533Z,40.73
2017-09-28T23:56:39.284Z,42.53
2017-09-28T23:59:06.086Z,42.33
